Title
Si parla di Noi: rivista VaV N.359/2017
Acrobazia: rivista VaV N.366/2018
Filmato in campo del 21-05-2017
               Alba e Tramonto per Reggio Emilia               
Corsi per
pilota di aliante
di primo e secondo periodo
VIENI A TROVARCI







Facebook
21/01/2018
15/09/2018
06/11/2018
CAMPIONATO ITALIANO SPORT e TROFEO VOLO ARTISTICO TRICOLORE a Castellazzo 17-19 maggio 2019

Calendario Acrobazia Completo 2019

17/11/2018
Michele D.: dalle 1330
18/11/2018
Michele D.: dalle 14
17/11/2018
Pietro B.: Stage Acro1
17/11/2018
Federico d.: da inizio attivita
Paolo S.: dalle ore 13:30 a fine esigenza
LIPE 171320Z 06006KT 9999 BKN040 BKN060 11/03 Q1024 >>
LIMP 171250Z 09008KT 9999 SCT030 12/03 Q1025 >>
>>
LIPE 171100Z 1712/1812 04010KT 9999 SCT045 >>
LIMP 171100Z 1712/1812 08007KT 9999 SCT050 >>
Logo
Aero Club Volovelistico Tricolore – Castellazzo (Reggio Emilia)
Via Enrico Fermi, 61 - 42123 Reggio Emilia - C.F. 91107430356 - PEC: avtricolore@pec.it
Associazione Sportiva Dilettantistica Federata Aero Club Italia

Questo sito non fa uso di cookies a fini di profilazione o di marketing e non registra le abitudini dei visitatori.
Per maggiori informazioni consulta la nostra informativa su privacy e cookies
Sviluppato da Bruno Bazzani. Contenuti ed immagini a cura dei Soci Aeroclub Tricolore.
Flypink